Time;durP1;ratioP1;P1;durP2;ratioP2;P2;SDS_P1;SDS_P2;PMS_P1;PMS_P2;Temp;Humidity;BMP_temperature;BMP_pressure;BME280_temperature;BME280_humidity;BME280_pressure;Samples;Min_cycle;Max_cycle;Signal;HPM_P1;HPM_P2
2023/09/22 00:00:20;;;;;;;5.53;4.40;;;18.80;99.90;;;;;;5078145;28;20223;-66
2023/09/22 00:03:10;;;;;;;5.53;4.43;;;18.80;99.90;;;;;;5074362;28;20230;-67
2023/09/22 00:05:59;;;;;;;7.22;4.93;;;18.80;99.90;;;;;;5082253;28;20635;-67
2023/09/22 00:08:50;;;;;;;5.28;3.88;;;18.80;99.90;;;;;;5070317;28;20247;-66
2023/09/22 00:11:39;;;;;;;5.15;4.25;;;18.70;99.90;;;;;;5089115;28;20250;-66
2023/09/22 00:14:27;;;;;;;5.68;4.07;;;18.70;99.90;;;;;;5089149;28;20826;-66
2023/09/22 00:17:19;;;;;;;6.68;4.10;;;18.70;99.90;;;;;;5068965;28;20231;-66
2023/09/22 00:20:12;;;;;;;6.75;4.30;;;18.70;99.90;;;;;;5073128;28;20707;-66
2023/09/22 00:23:00;;;;;;;9.18;4.22;;;18.60;99.90;;;;;;5077258;28;20219;-67
2023/09/22 00:25:49;;;;;;;8.85;4.80;;;18.60;99.90;;;;;;5094915;27;20235;-69
2023/09/22 00:28:38;;;;;;;8.10;4.53;;;18.60;99.90;;;;;;5053805;28;20228;-66
2023/09/22 00:31:27;;;;;;;7.78;4.55;;;18.60;99.90;;;;;;5096977;27;20224;-67
2023/09/22 00:34:17;;;;;;;6.57;4.70;;;18.60;99.90;;;;;;5105657;27;20234;-68
2023/09/22 00:37:07;;;;;;;7.78;4.15;;;18.60;99.90;;;;;;5083529;28;20223;-67
2023/09/22 00:39:56;;;;;;;5.72;4.30;;;18.50;99.90;;;;;;5088159;28;20223;-67
2023/09/22 00:42:46;;;;;;;5.90;4.00;;;18.50;99.90;;;;;;5067217;28;20303;-68
2023/09/22 00:45:37;;;;;;;6.82;4.45;;;18.60;99.90;;;;;;5071496;28;20231;-67
2023/09/22 00:48:51;;;;;;;6.60;4.55;;;18.60;99.90;;;;;;5072119;28;20220;-67
2023/09/22 00:51:42;;;;;;;7.03;4.53;;;18.60;99.90;;;;;;5096825;27;20667;-67
2023/09/22 00:54:32;;;;;;;7.65;4.20;;;18.60;99.90;;;;;;5074051;28;20234;-69
2023/09/22 00:57:21;;;;;;;10.55;4.35;;;18.50;99.90;;;;;;5075523;28;20219;-67
2023/09/22 01:00:11;;;;;;;7.15;4.30;;;18.50;99.90;;;;;;5089731;28;20349;-68
2023/09/22 01:03:00;;;;;;;4.50;3.83;;;18.40;99.90;;;;;;5072974;28;20216;-69
2023/09/22 01:05:49;;;;;;;7.05;4.55;;;18.30;99.90;;;;;;5080002;28;20226;-67
2023/09/22 01:08:40;;;;;;;8.15;4.25;;;18.30;99.90;;;;;;5080076;28;20219;-67
2023/09/22 01:11:31;;;;;;;7.75;4.45;;;18.30;99.90;;;;;;5076329;28;21616;-66
2023/09/22 01:14:21;;;;;;;10.50;4.47;;;18.20;99.90;;;;;;5071470;28;20220;-67
2023/09/22 01:17:10;;;;;;;6.63;4.43;;;18.30;99.90;;;;;;5076180;28;20219;-67
2023/09/22 01:19:59;;;;;;;5.82;3.92;;;18.30;99.90;;;;;;5068691;28;20235;-66
2023/09/22 01:22:50;;;;;;;7.38;4.20;;;18.30;99.90;;;;;;5074972;28;20326;-66
2023/09/22 01:25:40;;;;;;;5.97;3.80;;;18.20;99.90;;;;;;5079629;27;20223;-66
2023/09/22 01:28:29;;;;;;;5.35;4.10;;;18.20;99.90;;;;;;5073895;28;20308;-66
2023/09/22 01:31:18;;;;;;;7.57;3.92;;;18.20;99.90;;;;;;5076310;28;20224;-65
2023/09/22 01:34:11;;;;;;;6.65;3.90;;;18.10;99.90;;;;;;5085701;28;20239;-66
2023/09/22 01:37:00;;;;;;;8.00;3.95;;;18.20;99.90;;;;;;5079178;28;20264;-67
2023/09/22 01:39:51;;;;;;;7.28;3.60;;;18.20;99.90;;;;;;5075074;28;20364;-67
2023/09/22 01:42:40;;;;;;;5.40;3.58;;;18.20;99.90;;;;;;5071698;28;20221;-68
2023/09/22 01:45:28;;;;;;;7.22;3.70;;;18.20;99.90;;;;;;5075326;28;20222;-68
2023/09/22 01:48:17;;;;;;;8.45;4.13;;;18.10;99.90;;;;;;5081252;28;20232;-67
2023/09/22 01:51:06;;;;;;;7.65;4.20;;;18.10;99.90;;;;;;5071984;28;20244;-67
2023/09/22 01:53:56;;;;;;;5.28;3.78;;;18.10;99.90;;;;;;5100848;27;20352;-68
2023/09/22 01:56:47;;;;;;;4.65;3.75;;;18.00;99.90;;;;;;5070014;28;20224;-67
2023/09/22 01:59:36;;;;;;;5.55;3.90;;;18.00;99.90;;;;;;5108861;27;20223;-69
2023/09/22 02:02:25;;;;;;;6.38;3.78;;;17.90;99.90;;;;;;5075130;28;20250;-67
2023/09/22 02:05:14;;;;;;;4.57;3.58;;;17.90;99.90;;;;;;5084351;28;20714;-65
2023/09/22 02:08:04;;;;;;;4.53;3.75;;;17.90;99.90;;;;;;5078971;28;20360;-68
2023/09/22 02:10:54;;;;;;;4.70;3.90;;;18.00;99.90;;;;;;5069227;28;20224;-68
2023/09/22 02:13:45;;;;;;;5.25;3.65;;;17.90;99.90;;;;;;5077710;28;20284;-67
2023/09/22 02:16:34;;;;;;;9.75;4.22;;;17.90;99.90;;;;;;5085671;28;20215;-69
2023/09/22 02:19:23;;;;;;;5.82;3.72;;;17.90;99.90;;;;;;5080083;28;20231;-67
2023/09/22 02:22:13;;;;;;;5.88;4.03;;;17.80;99.90;;;;;;5077167;28;20247;-67
2023/09/22 02:25:03;;;;;;;7.55;4.30;;;17.80;99.90;;;;;;5075354;28;20347;-69
2023/09/22 02:27:54;;;;;;;5.88;3.88;;;17.90;99.90;;;;;;5077167;28;20276;-67
2023/09/22 02:30:47;;;;;;;5.43;3.67;;;17.90;99.90;;;;;;5074700;28;20234;-66
2023/09/22 02:33:35;;;;;;;6.57;4.28;;;17.80;99.90;;;;;;5097829;27;20220;-68
2023/09/22 02:36:25;;;;;;;6.03;3.92;;;17.80;99.90;;;;;;5073807;28;20226;-68
2023/09/22 02:39:15;;;;;;;6.13;3.75;;;17.80;99.90;;;;;;5072755;28;20766;-68
2023/09/22 02:42:04;;;;;;;8.80;4.25;;;17.70;99.90;;;;;;5082674;28;20226;-66
2023/09/22 02:44:53;;;;;;;6.47;3.80;;;17.70;99.90;;;;;;5077112;28;20489;-67
2023/09/22 02:47:44;;;;;;;6.97;4.10;;;17.70;99.90;;;;;;5073486;28;20282;-66
2023/09/22 02:50:35;;;;;;;5.18;3.78;;;17.80;99.90;;;;;;5073376;27;20232;-68
2023/09/22 02:53:24;;;;;;;6.57;4.15;;;17.70;99.90;;;;;;5097818;27;20220;-66
2023/09/22 02:56:14;;;;;;;4.60;3.80;;;17.80;99.90;;;;;;5078339;28;20327;-67
2023/09/22 02:59:04;;;;;;;6.97;4.05;;;17.70;99.90;;;;;;5077234;28;20358;-68
2023/09/22 03:01:52;;;;;;;6.47;4.15;;;17.70;99.90;;;;;;5077768;28;20242;-67
2023/09/22 03:04:42;;;;;;;6.15;3.90;;;17.70;99.90;;;;;;5077763;28;20918;-67
2023/09/22 03:07:32;;;;;;;8.02;3.97;;;17.60;99.90;;;;;;5087675;27;20230;-69
2023/09/22 03:10:20;;;;;;;8.68;4.07;;;17.70;99.90;;;;;;5076821;28;20414;-68
2023/09/22 03:13:09;;;;;;;8.13;4.35;;;17.70;99.90;;;;;;5082330;28;20223;-67
2023/09/22 03:16:00;;;;;;;5.80;3.92;;;17.60;99.90;;;;;;5079151;28;20718;-67
2023/09/22 03:18:49;;;;;;;5.53;3.83;;;17.60;99.90;;;;;;5066585;28;20224;-66
2023/09/22 03:21:40;;;;;;;5.90;4.22;;;17.60;99.90;;;;;;5076195;27;20368;-67
2023/09/22 03:24:29;;;;;;;5.60;3.85;;;17.50;99.90;;;;;;5078384;28;20740;-66
2023/09/22 03:27:19;;;;;;;7.28;3.95;;;17.50;99.90;;;;;;5072308;28;20224;-68
2023/09/22 03:30:11;;;;;;;7.40;4.00;;;17.60;99.90;;;;;;5104052;27;20223;-66
2023/09/22 03:33:00;;;;;;;5.32;3.90;;;17.50;99.90;;;;;;5074873;28;20228;-65
2023/09/22 03:35:50;;;;;;;8.85;3.90;;;17.50;99.90;;;;;;5075629;28;20235;-66
2023/09/22 03:38:41;;;;;;;8.25;4.30;;;17.40;99.90;;;;;;5074457;28;20228;-67
2023/09/22 03:41:31;;;;;;;4.55;3.50;;;17.30;99.90;;;;;;5106757;27;20291;-67
2023/09/22 03:44:20;;;;;;;5.85;4.03;;;17.40;99.90;;;;;;5074638;28;20646;-66
2023/09/22 03:47:09;;;;;;;5.63;3.83;;;17.40;99.90;;;;;;5065361;28;20360;-66
2023/09/22 03:49:58;;;;;;;5.45;3.72;;;17.40;99.90;;;;;;5082764;28;20244;-66
2023/09/22 03:52:49;;;;;;;4.93;3.65;;;17.40;99.90;;;;;;5101261;27;20875;-68
2023/09/22 03:55:40;;;;;;;6.07;3.88;;;17.40;99.90;;;;;;5074096;28;20227;-66
2023/09/22 03:58:29;;;;;;;6.47;4.40;;;17.50;99.90;;;;;;5075592;28;20710;-66
2023/09/22 04:01:18;;;;;;;6.18;4.05;;;17.30;99.90;;;;;;5072330;28;20208;-68
2023/09/22 04:04:08;;;;;;;6.25;3.83;;;17.30;99.90;;;;;;5076595;28;20616;-66
2023/09/22 04:06:57;;;;;;;7.90;3.90;;;17.40;99.90;;;;;;5077913;28;20303;-67
2023/09/22 04:09:47;;;;;;;6.25;4.25;;;17.50;99.90;;;;;;5073001;28;20259;-68
2023/09/22 04:12:38;;;;;;;6.25;3.92;;;17.50;99.90;;;;;;5074416;28;20223;-69
2023/09/22 04:15:27;;;;;;;6.25;4.22;;;17.40;99.90;;;;;;5078165;28;20728;-68
2023/09/22 04:18:16;;;;;;;6.38;4.20;;;17.50;99.90;;;;;;5073988;28;20218;-68
2023/09/22 04:21:07;;;;;;;6.13;4.05;;;17.40;99.90;;;;;;5075845;28;20232;-68
2023/09/22 04:23:58;;;;;;;7.22;4.15;;;17.40;99.90;;;;;;5078350;28;20313;-68
2023/09/22 04:26:52;;;;;;;6.63;3.95;;;17.40;99.90;;;;;;5075338;28;20532;-69
2023/09/22 04:29:42;;;;;;;6.47;4.22;;;17.40;99.90;;;;;;5077506;28;20751;-68
2023/09/22 04:32:33;;;;;;;6.20;4.47;;;17.50;99.90;;;;;;5076104;28;20995;-69
2023/09/22 04:35:22;;;;;;;7.32;4.05;;;17.40;99.90;;;;;;5078712;28;20228;-69
2023/09/22 04:38:11;;;;;;;7.95;4.20;;;17.40;99.90;;;;;;5070879;28;20216;-68
2023/09/22 04:41:01;;;;;;;6.22;4.32;;;17.40;99.90;;;;;;5075420;28;20280;-67
2023/09/22 04:43:50;;;;;;;7.53;4.72;;;17.30;99.90;;;;;;5069360;28;20320;-67
2023/09/22 04:46:40;;;;;;;6.18;4.15;;;17.30;99.90;;;;;;5055360;27;20223;-67
2023/09/22 04:49:29;;;;;;;7.88;4.57;;;17.30;99.90;;;;;;5070169;28;20323;-66
2023/09/22 04:52:18;;;;;;;6.13;4.40;;;17.30;99.90;;;;;;5068364;28;20227;-66
2023/09/22 04:55:07;;;;;;;6.03;4.10;;;17.40;99.90;;;;;;5075569;28;20560;-66
2023/09/22 04:57:56;;;;;;;11.35;5.07;;;17.40;99.90;;;;;;5075572;28;20223;-67
2023/09/22 05:00:54;;;;;;;5.68;4.03;;;17.50;99.90;;;;;;5083229;28;20234;-65
2023/09/22 05:03:46;;;;;;;7.53;4.50;;;17.40;99.90;;;;;;5081883;28;20227;-66
2023/09/22 05:06:35;;;;;;;7.57;4.47;;;17.40;99.90;;;;;;5085098;28;20630;-67
2023/09/22 05:09:24;;;;;;;7.38;4.35;;;17.30;99.90;;;;;;5081649;28;20230;-66
2023/09/22 05:12:13;;;;;;;6.18;4.53;;;17.30;99.90;;;;;;5074991;27;20215;-67
2023/09/22 05:15:02;;;;;;;6.82;4.20;;;17.40;99.90;;;;;;5109022;27;20583;-70
2023/09/22 05:17:51;;;;;;;7.65;4.18;;;17.30;99.90;;;;;;5072296;28;20212;-68
2023/09/22 05:20:42;;;;;;;8.27;4.70;;;17.40;99.90;;;;;;5081919;28;20223;-68
2023/09/22 05:23:32;;;;;;;6.78;4.28;;;17.50;99.90;;;;;;5078461;28;20618;-68
2023/09/22 05:26:21;;;;;;;7.95;4.13;;;17.50;99.90;;;;;;5088528;27;20215;-68
2023/09/22 05:29:10;;;;;;;10.77;4.38;;;17.60;99.90;;;;;;5073923;28;20225;-67
2023/09/22 05:31:59;;;;;;;10.25;4.60;;;17.70;99.90;;;;;;5073206;28;20232;-67
2023/09/22 05:34:51;;;;;;;6.95;4.25;;;17.80;99.90;;;;;;5070892;28;20697;-68
2023/09/22 05:37:42;;;;;;;7.85;4.30;;;17.80;99.90;;;;;;5083100;28;20231;-68
2023/09/22 05:40:34;;;;;;;5.70;3.90;;;17.90;99.90;;;;;;5077120;28;20228;-68
2023/09/22 05:43:23;;;;;;;7.95;4.22;;;18.00;99.90;;;;;;5079377;28;20749;-69
2023/09/22 05:46:13;;;;;;;9.77;4.07;;;18.00;99.90;;;;;;5075480;28;20282;-67
2023/09/22 05:49:04;;;;;;;17.15;4.32;;;18.10;99.90;;;;;;5074534;28;20234;-67
2023/09/22 05:51:53;;;;;;;8.02;4.25;;;18.20;99.90;;;;;;5075317;28;20313;-66
2023/09/22 05:54:49;;;;;;;8.02;4.45;;;18.30;99.90;;;;;;5078749;28;20224;-65
2023/09/22 05:57:38;;;;;;;6.15;4.50;;;18.30;99.90;;;;;;5070343;28;20230;-66
2023/09/22 06:00:31;;;;;;;7.15;4.38;;;18.40;99.90;;;;;;5073416;28;20234;-66
2023/09/22 06:03:20;;;;;;;11.93;4.22;;;18.50;99.90;;;;;;5074581;28;20756;-67
2023/09/22 06:06:11;;;;;;;6.10;4.70;;;18.60;99.90;;;;;;5070210;28;20302;-67
2023/09/22 06:09:00;;;;;;;8.43;4.45;;;18.60;99.90;;;;;;5075901;28;20556;-67
2023/09/22 06:11:50;;;;;;;12.52;4.88;;;18.70;99.90;;;;;;5088361;27;20212;-69
2023/09/22 06:14:39;;;;;;;7.18;3.90;;;18.80;99.90;;;;;;5085081;28;20216;-69
2023/09/22 06:17:28;;;;;;;6.05;4.10;;;19.10;99.90;;;;;;5072129;28;20732;-67
2023/09/22 06:20:17;;;;;;;8.55;4.50;;;19.30;99.90;;;;;;5077227;28;20754;-70
2023/09/22 06:23:05;;;;;;;9.80;4.28;;;19.40;99.90;;;;;;5075974;28;20306;-69
2023/09/22 06:25:55;;;;;;;6.43;4.10;;;19.70;99.90;;;;;;5072671;28;20714;-69
2023/09/22 06:28:46;;;;;;;8.20;4.60;;;19.90;99.90;;;;;;5070905;28;20219;-72
2023/09/22 06:31:36;;;;;;;8.15;4.88;;;19.90;99.90;;;;;;5078757;28;20231;-71
2023/09/22 06:34:25;;;;;;;8.40;4.47;;;19.90;99.90;;;;;;5081333;28;20211;-72
2023/09/22 06:37:15;;;;;;;10.77;4.90;;;19.80;99.90;;;;;;5065698;28;20354;-72
2023/09/22 06:40:11;;;;;;;14.02;4.80;;;19.70;99.90;;;;;;5080008;27;20743;-72
2023/09/22 06:42:59;;;;;;;9.65;4.97;;;19.70;99.90;;;;;;5070729;28;20369;-73
2023/09/22 06:46:05;;;;;;;13.93;5.15;;;19.80;99.90;;;;;;5077967;28;20219;-72
2023/09/22 06:48:56;;;;;;;11.05;4.97;;;20.00;99.90;;;;;;5074943;28;20353;-72
2023/09/22 06:51:45;;;;;;;11.27;5.10;;;20.10;99.90;;;;;;5100653;27;20257;-72
2023/09/22 06:54:34;;;;;;;9.13;4.55;;;20.20;99.90;;;;;;5079148;28;20220;-72
2023/09/22 06:57:23;;;;;;;10.30;5.28;;;20.30;99.90;;;;;;5080836;28;20223;-72
2023/09/22 07:00:18;;;;;;;10.02;4.97;;;20.30;99.90;;;;;;5066264;28;20578;-72
2023/09/22 07:03:11;;;;;;;8.32;5.22;;;20.40;99.90;;;;;;5105485;27;20325;-72
2023/09/22 07:06:01;;;;;;;12.13;5.53;;;20.50;99.90;;;;;;5084054;28;20666;-72
2023/09/22 07:08:50;;;;;;;10.65;5.28;;;20.50;99.90;;;;;;5083826;27;20216;-71
2023/09/22 07:11:40;;;;;;;7.63;4.72;;;20.60;99.90;;;;;;5074352;28;20318;-72
2023/09/22 07:14:29;;;;;;;10.40;4.80;;;20.60;99.90;;;;;;5081421;28;20904;-72
2023/09/22 07:17:18;;;;;;;7.90;5.20;;;20.70;99.90;;;;;;5097919;27;20219;-72
2023/09/22 07:20:14;;;;;;;13.02;5.70;;;20.70;99.90;;;;;;5058563;28;20978;-71
2023/09/22 07:23:04;;;;;;;9.35;5.22;;;20.80;99.90;;;;;;5073070;28;20230;-73
2023/09/22 07:25:59;;;;;;;10.98;5.47;;;20.90;99.90;;;;;;5075641;28;20224;-72
2023/09/22 07:28:51;;;;;;;10.23;5.15;;;20.90;99.90;;;;;;5071670;28;20248;-73
2023/09/22 07:31:40;;;;;;;9.07;5.40;;;21.00;99.90;;;;;;5068713;28;20315;-74
2023/09/22 07:34:29;;;;;;;12.10;5.40;;;21.10;99.90;;;;;;5081502;28;20749;-73
2023/09/22 07:37:20;;;;;;;8.38;5.40;;;21.20;99.90;;;;;;5045646;28;20223;-73
2023/09/22 07:40:11;;;;;;;10.30;4.93;;;21.30;99.90;;;;;;5037508;28;20235;-73
2023/09/22 07:43:05;;;;;;;14.43;5.75;;;21.40;99.90;;;;;;5054184;28;20250;-72
2023/09/22 07:45:54;;;;;;;12.05;5.47;;;21.70;99.90;;;;;;5036812;28;20220;-72
2023/09/22 07:48:45;;;;;;;6.45;5.00;;;22.00;99.90;;;;;;5054852;28;20495;-73
2023/09/22 07:51:37;;;;;;;14.13;5.38;;;22.20;99.90;;;;;;5042218;28;20225;-75
2023/09/22 07:54:28;;;;;;;7.15;5.32;;;22.60;99.90;;;;;;5038431;28;20312;-75
2023/09/22 07:57:17;;;;;;;9.70;5.57;;;22.90;99.90;;;;;;5048393;28;20238;-69
2023/09/22 08:00:10;;;;;;;10.68;5.13;;;23.30;99.90;;;;;;5040373;28;21415;-72
2023/09/22 08:02:59;;;;;;;8.23;4.97;;;23.40;99.90;;;;;;5045262;28;20249;-71
2023/09/22 08:05:49;;;;;;;11.90;5.35;;;23.60;99.90;;;;;;5050803;28;20220;-71
2023/09/22 08:08:39;;;;;;;9.77;4.85;;;24.00;99.90;;;;;;5048818;28;20728;-73
2023/09/22 08:11:30;;;;;;;7.32;5.07;;;24.30;99.90;;;;;;5047895;28;20232;-74
2023/09/22 08:14:19;;;;;;;9.80;5.65;;;24.50;99.90;;;;;;5035306;28;20232;-73
2023/09/22 08:17:08;;;;;;;12.18;6.05;;;24.60;99.90;;;;;;5048205;28;20212;-72
2023/09/22 08:19:56;;;;;;;11.65;5.40;;;24.70;99.90;;;;;;5049384;28;20917;-70
2023/09/22 08:22:47;;;;;;;12.68;5.38;;;25.00;99.90;;;;;;5052876;28;20212;-71
2023/09/22 08:25:43;;;;;;;9.30;5.22;;;25.40;99.90;;;;;;5038046;28;20903;-72
2023/09/22 08:28:34;;;;;;;9.52;5.50;;;25.50;99.90;;;;;;5039138;28;20614;-73
2023/09/22 08:31:23;;;;;;;9.48;5.68;;;25.90;99.90;;;;;;5052251;28;20219;-72
2023/09/22 08:34:14;;;;;;;10.15;5.20;;;26.20;99.90;;;;;;5037495;28;20224;-73
2023/09/22 08:37:04;;;;;;;11.57;5.28;;;26.50;99.90;;;;;;5060595;28;20223;-72
2023/09/22 08:39:56;;;;;;;6.20;4.85;;;26.80;99.90;;;;;;5055128;28;21056;-72
2023/09/22 08:42:52;;;;;;;12.70;5.20;;;27.20;99.90;;;;;;5070459;28;20823;-72
2023/09/22 08:45:43;;;;;;;7.30;5.20;;;27.50;99.90;;;;;;5072123;28;20588;-73
2023/09/22 08:48:32;;;;;;;11.23;5.32;;;27.80;99.90;;;;;;5069677;28;20828;-74
2023/09/22 08:51:22;;;;;;;10.68;5.72;;;28.00;99.90;;;;;;5072993;28;20677;-72
2023/09/22 08:54:11;;;;;;;11.50;6.00;;;28.20;99.90;;;;;;5058761;28;20807;-70
2023/09/22 08:57:05;;;;;;;11.00;5.95;;;28.30;99.90;;;;;;5071812;28;20250;-71
2023/09/22 08:59:56;;;;;;;9.07;5.40;;;28.20;99.90;;;;;;5062034;28;20808;-70
2023/09/22 09:02:48;;;;;;;13.20;7.60;;;27.90;99.90;;;;;;5075424;28;20302;-69
2023/09/22 09:05:40;;;;;;;13.05;5.80;;;27.40;99.90;;;;;;5057609;28;20264;-69
2023/09/22 09:08:29;;;;;;;12.70;5.85;;;26.70;99.90;;;;;;5064959;28;20227;-70
2023/09/22 09:11:18;;;;;;;9.95;5.93;;;26.30;99.90;;;;;;5068584;28;20349;-68
2023/09/22 09:14:23;;;;;;;18.05;6.30;;;25.70;99.90;;;;;;5066787;28;20231;-70
2023/09/22 09:17:20;;;;;;;9.02;5.68;;;25.40;99.90;;;;;;5072317;28;20220;-71
2023/09/22 09:20:11;;;;;;;9.57;5.85;;;25.20;99.90;;;;;;5071149;28;20755;-73
2023/09/22 09:23:13;;;;;;;12.15;6.38;;;25.20;99.90;;;;;;5067767;28;20327;-71
2023/09/22 09:26:03;;;;;;;11.85;5.95;;;25.10;99.90;;;;;;5065490;28;20219;-71
2023/09/22 09:28:53;;;;;;;10.93;5.70;;;25.00;99.90;;;;;;5051086;28;20222;-71
2023/09/22 09:31:46;;;;;;;9.82;6.47;;;24.90;99.90;;;;;;5055450;28;20302;-72
2023/09/22 09:34:41;;;;;;;13.55;7.07;;;24.90;99.90;;;;;;5058771;28;20339;-71
2023/09/22 09:37:31;;;;;;;10.45;5.90;;;24.90;99.90;;;;;;5069433;28;20230;-71
2023/09/22 09:40:23;;;;;;;11.05;6.00;;;24.90;99.90;;;;;;5049922;28;20240;-70
2023/09/22 09:43:16;;;;;;;14.35;6.63;;;24.90;99.90;;;;;;5054528;28;20654;-71
2023/09/22 09:46:08;;;;;;;12.52;6.25;;;24.90;99.90;;;;;;5074952;28;20223;-69
2023/09/22 09:48:58;;;;;;;11.82;5.60;;;24.80;99.90;;;;;;5065036;28;20231;-71
2023/09/22 09:51:49;;;;;;;13.43;6.22;;;24.70;99.90;;;;;;5074215;28;20293;-71
2023/09/22 09:54:46;;;;;;;14.07;6.25;;;24.80;99.90;;;;;;5061104;28;20275;-72
2023/09/22 09:57:38;;;;;;;8.50;5.75;;;24.80;99.90;;;;;;5069857;28;20591;-71
2023/09/22 10:00:28;;;;;;;10.10;5.90;;;24.90;99.90;;;;;;5060464;28;20811;-71
2023/09/22 10:03:21;;;;;;;11.02;5.60;;;24.90;99.90;;;;;;5075100;28;20745;-71
2023/09/22 10:06:16;;;;;;;15.65;5.47;;;24.90;99.90;;;;;;5078198;28;20228;-72
2023/09/22 10:09:09;;;;;;;10.13;5.80;;;24.90;99.90;;;;;;5077432;28;20235;-70
2023/09/22 10:12:06;;;;;;;10.63;5.38;;;25.00;99.90;;;;;;5073116;28;20239;-69
2023/09/22 10:15:00;;;;;;;9.90;5.45;;;25.00;99.90;;;;;;5072214;28;20692;-71
2023/09/22 10:17:55;;;;;;;7.75;4.97;;;25.00;99.90;;;;;;5077869;28;20211;-71
2023/09/22 10:20:47;;;;;;;8.23;5.60;;;25.00;99.90;;;;;;5056991;28;20626;-71
2023/09/22 10:23:36;;;;;;;9.43;5.63;;;25.00;99.90;;;;;;5060626;28;20255;-72
2023/09/22 10:26:25;;;;;;;8.75;5.45;;;25.00;99.90;;;;;;5073330;28;20632;-70
2023/09/22 10:29:45;;;;;;;12.52;5.82;;;25.20;99.90;;;;;;5085698;28;20228;-71
2023/09/22 10:32:34;;;;;;;9.30;5.75;;;25.40;99.90;;;;;;5062557;28;20239;-70
2023/09/22 10:35:40;;;;;;;10.00;5.22;;;25.70;99.90;;;;;;5083127;28;20225;-72
2023/09/22 10:38:29;;;;;;;10.85;5.68;;;25.90;99.90;;;;;;5066448;28;20311;-70
2023/09/22 10:41:18;;;;;;;11.73;5.50;;;26.00;99.90;;;;;;5084240;28;20212;-70
2023/09/22 10:44:08;;;;;;;14.80;5.78;;;26.00;99.90;;;;;;5077540;28;20222;-71
2023/09/22 10:46:58;;;;;;;8.85;5.63;;;26.00;99.90;;;;;;5079783;28;20228;-71
2023/09/22 10:49:47;;;;;;;10.23;5.50;;;25.90;99.90;;;;;;5079109;28;20282;-71
2023/09/22 10:52:36;;;;;;;7.43;5.25;;;25.80;99.90;;;;;;5080866;28;20301;-72
2023/09/22 10:55:27;;;;;;;10.52;5.88;;;25.80;99.90;;;;;;5080231;28;21178;-72
2023/09/22 10:58:18;;;;;;;14.75;5.97;;;25.60;99.90;;;;;;5075281;28;20219;-71
2023/09/22 11:01:08;;;;;;;14.57;6.32;;;25.70;99.90;;;;;;5081095;28;20231;-71
2023/09/22 11:04:03;;;;;;;15.40;6.45;;;25.60;99.90;;;;;;5079559;28;20360;-70
2023/09/22 11:06:53;;;;;;;12.30;5.32;;;25.50;99.90;;;;;;5064055;28;20246;-72
2023/09/22 11:09:42;;;;;;;11.07;6.15;;;25.40;99.90;;;;;;5074970;28;20223;-71
2023/09/22 11:12:31;;;;;;;12.25;5.60;;;25.40;99.90;;;;;;5064581;28;20239;-71
2023/09/22 11:15:21;;;;;;;12.30;6.60;;;25.60;99.90;;;;;;5072207;28;20958;-71
2023/09/22 11:18:11;;;;;;;12.93;5.78;;;25.80;99.90;;;;;;5073193;28;20383;-72
2023/09/22 11:21:10;;;;;;;11.15;5.90;;;25.60;99.90;;;;;;5069981;28;20231;-71
2023/09/22 11:23:59;;;;;;;15.10;6.53;;;25.50;99.90;;;;;;5071327;28;20297;-71
2023/09/22 11:26:48;;;;;;;14.90;7.00;;;25.50;99.90;;;;;;5066303;28;20254;-71
2023/09/22 11:29:39;;;;;;;11.73;6.20;;;25.50;99.90;;;;;;5079141;28;20231;-69
2023/09/22 11:32:32;;;;;;;9.80;6.22;;;25.50;99.90;;;;;;5076499;28;20253;-71
2023/09/22 11:35:33;;;;;;;12.45;5.97;;;25.40;99.90;;;;;;5057551;28;20276;-70
2023/09/22 11:38:27;;;;;;;12.68;6.00;;;25.40;99.90;;;;;;5069705;28;20270;-71
2023/09/22 11:41:17;;;;;;;11.02;6.30;;;25.50;99.90;;;;;;5073487;28;20231;-70
2023/09/22 11:44:15;;;;;;;12.18;5.93;;;25.50;99.90;;;;;;5073616;28;20226;-70
2023/09/22 11:47:04;;;;;;;11.93;6.35;;;25.50;99.90;;;;;;5073690;28;21178;-70
2023/09/22 11:49:53;;;;;;;14.27;6.78;;;25.50;99.90;;;;;;5087470;27;20353;-69
2023/09/22 11:52:42;;;;;;;9.98;5.90;;;25.40;99.90;;;;;;5069015;28;20317;-70
2023/09/22 11:55:32;;;;;;;12.73;6.50;;;25.40;99.90;;;;;;5064956;28;20247;-68
2023/09/22 11:58:21;;;;;;;8.95;6.50;;;25.30;99.90;;;;;;5079056;28;20350;-68
2023/09/22 12:01:10;;;;;;;13.60;6.45;;;25.30;99.90;;;;;;5063634;28;20215;-67
2023/09/22 12:03:59;;;;;;;10.82;5.93;;;25.50;99.90;;;;;;5067897;28;20230;-71
2023/09/22 12:06:48;;;;;;;9.77;6.18;;;25.50;99.90;;;;;;5074047;28;20220;-71
2023/09/22 12:09:40;;;;;;;12.52;5.65;;;25.50;99.90;;;;;;5059969;28;20231;-72
2023/09/22 12:12:30;;;;;;;12.75;6.50;;;25.50;99.90;;;;;;5056744;28;20247;-71
2023/09/22 12:15:19;;;;;;;18.77;7.65;;;25.50;99.90;;;;;;5042257;28;20228;-71
2023/09/22 12:18:08;;;;;;;7.55;5.30;;;25.50;99.90;;;;;;5074653;28;20235;-71
2023/09/22 12:21:00;;;;;;;11.73;5.82;;;25.50;99.90;;;;;;5087581;28;20222;-71
2023/09/22 12:23:49;;;;;;;9.98;5.78;;;25.60;99.90;;;;;;5080153;28;20227;-72
2023/09/22 12:26:38;;;;;;;11.63;5.95;;;25.70;99.90;;;;;;5070539;28;20720;-71
2023/09/22 12:29:29;;;;;;;12.25;6.00;;;25.60;99.90;;;;;;5076384;28;20337;-72
2023/09/22 12:32:19;;;;;;;8.70;5.07;;;25.70;99.90;;;;;;5060870;28;20238;-71
2023/09/22 12:35:09;;;;;;;8.52;5.60;;;25.70;99.90;;;;;;5066967;28;20228;-71
2023/09/22 12:37:57;;;;;;;15.40;5.88;;;25.60;99.90;;;;;;5081767;28;20234;-71
2023/09/22 12:40:47;;;;;;;14.57;6.22;;;25.60;99.90;;;;;;5069752;28;20331;-71
2023/09/22 12:43:36;;;;;;;12.35;6.00;;;25.70;99.90;;;;;;5074317;28;20227;-72
2023/09/22 12:46:27;;;;;;;9.48;5.68;;;25.70;99.90;;;;;;5066870;28;20230;-72
2023/09/22 12:49:16;;;;;;;12.07;6.00;;;25.60;99.90;;;;;;5084327;28;20913;-73
2023/09/22 12:52:05;;;;;;;12.07;5.60;;;25.60;99.90;;;;;;5095740;28;20220;-70
2023/09/22 12:54:54;;;;;;;12.82;6.18;;;25.50;99.90;;;;;;5064491;28;20216;-71
2023/09/22 12:57:43;;;;;;;9.88;6.22;;;25.40;99.90;;;;;;5078516;28;20231;-71
2023/09/22 13:00:33;;;;;;;15.95;6.13;;;25.40;99.90;;;;;;5059703;28;20235;-73
2023/09/22 13:03:24;;;;;;;8.75;5.50;;;25.40;99.90;;;;;;5048076;28;20234;-71
2023/09/22 13:06:14;;;;;;;10.52;5.88;;;25.40;99.90;;;;;;5067010;28;20230;-70
2023/09/22 13:09:03;;;;;;;13.80;5.60;;;25.40;99.90;;;;;;5071917;28;20253;-71
2023/09/22 13:11:52;;;;;;;8.57;5.72;;;25.40;99.90;;;;;;5057024;28;20289;-72
2023/09/22 13:14:41;;;;;;;10.98;5.72;;;25.50;99.90;;;;;;5073846;28;20238;-70
2023/09/22 13:17:30;;;;;;;18.35;13.32;;;25.50;99.90;;;;;;5083980;28;20698;-71
2023/09/22 13:20:20;;;;;;;14.88;6.22;;;25.50;99.90;;;;;;5074998;28;20243;-71
2023/09/22 13:23:10;;;;;;;17.10;6.15;;;25.40;99.90;;;;;;5063742;28;20552;-70
2023/09/22 13:25:58;;;;;;;13.85;5.85;;;25.40;99.90;;;;;;5058484;28;20373;-69
2023/09/22 13:28:48;;;;;;;11.60;6.00;;;25.50;99.90;;;;;;5082131;28;20232;-70
2023/09/22 13:31:38;;;;;;;11.95;5.97;;;25.50;99.90;;;;;;5065058;28;20223;-70
2023/09/22 13:34:29;;;;;;;9.25;5.65;;;25.50;99.90;;;;;;5072027;28;20472;-69
2023/09/22 13:37:19;;;;;;;11.77;6.00;;;25.50;99.90;;;;;;5068522;28;20259;-70
2023/09/22 13:40:11;;;;;;;12.20;6.00;;;25.50;99.90;;;;;;5060634;28;20579;-71
2023/09/22 13:43:01;;;;;;;11.02;5.60;;;25.50;99.90;;;;;;5086542;27;20234;-70
2023/09/22 13:45:50;;;;;;;11.02;5.82;;;25.60;99.90;;;;;;5071256;28;20239;-70
2023/09/22 13:48:39;;;;;;;10.68;5.90;;;25.70;99.90;;;;;;5071441;28;20232;-69
2023/09/22 13:51:31;;;;;;;14.60;5.55;;;25.70;99.90;;;;;;5081550;28;20803;-68
2023/09/22 13:54:21;;;;;;;14.48;6.60;;;25.70;99.90;;;;;;5073242;28;20220;-68
2023/09/22 13:57:10;;;;;;;11.10;6.30;;;25.60;99.90;;;;;;5078126;28;20223;-68
2023/09/22 13:59:59;;;;;;;13.05;5.47;;;25.50;99.90;;;;;;5069341;28;20633;-71
2023/09/22 14:02:59;;;;;;;10.27;5.45;;;25.40;99.90;;;;;;5070702;28;20334;-69
2023/09/22 14:05:48;;;;;;;9.68;5.45;;;25.20;99.90;;;;;;5060924;28;20718;-70
2023/09/22 14:08:37;;;;;;;10.02;5.40;;;25.10;99.90;;;;;;5063381;28;20223;-70
2023/09/22 14:11:28;;;;;;;8.02;5.35;;;25.10;99.90;;;;;;5068315;28;20220;-69
2023/09/22 14:14:20;;;;;;;10.40;6.18;;;25.10;99.90;;;;;;5071211;28;20280;-67
2023/09/22 14:17:09;;;;;;;11.30;6.05;;;25.10;99.90;;;;;;5092288;27;20323;-70
2023/09/22 14:19:59;;;;;;;9.98;5.78;;;25.10;99.90;;;;;;5076057;28;20384;-69
2023/09/22 14:22:48;;;;;;;13.15;6.18;;;25.00;99.90;;;;;;5082595;28;20224;-67
2023/09/22 14:25:37;;;;;;;10.40;5.85;;;25.00;99.90;;;;;;5077086;28;20377;-70
2023/09/22 14:28:28;;;;;;;10.05;5.35;;;24.90;99.90;;;;;;5066124;28;20223;-69
2023/09/22 14:31:24;;;;;;;11.90;5.80;;;25.00;99.90;;;;;;5089933;27;20219;-70
2023/09/22 14:34:13;;;;;;;8.88;5.72;;;25.10;99.90;;;;;;5059932;28;20269;-70
2023/09/22 14:37:03;;;;;;;10.20;6.20;;;25.20;99.90;;;;;;5078433;28;21007;-70
2023/09/22 14:39:56;;;;;;;10.05;5.60;;;25.20;99.90;;;;;;5064251;28;22565;-71
2023/09/22 14:42:46;;;;;;;16.40;6.53;;;25.20;99.90;;;;;;5079006;28;20215;-70